Latest Weather Observations for Katanning RS

IDW60801

Issued at 9:03 pm WST Thursday 23 November 2017 (issued every 30 minutes, with the page automatically refreshed every 10 minutes)

About weather observations | Map of weather stations | Latest weather observations for WA | Other Formats
Station Details ID: 010916 Name: KATANNING Lat: -33.69 Lon: 117.61 Height: 320.0 m
Data from the previous 72 hours. | See also: Recent months at Katanning RS
Date/Time
WST
Temp
°C
App
Temp
°C
Dew
Point
°C
Rel
Hum
%
Delta-T
°C
Wind Press
QNH
hPa
Press
MSL
hPa
Rain since
9am
mm
Dir  Spd
km/h
Gust
km/h
Spd
kts
Gust
kts
23/09:00pm 16.3 12.1 7.5 56 4.5 ESE 19 28 10 15 1017.3 1016.4 0.0
23/08:30pm 17.6 13.7 7.1 50 5.3 ESE 17 28 9 15 1017.0 1016.1 0.0
23/08:00pm 19.1 14.5 6.6 44 6.3 ESE 20 32 11 17 1016.5 1015.6 0.0
23/07:30pm 20.3 15.9 6.6 41 7.0 ESE 19 24 10 13 1016.1 1015.2 0.0
23/07:00pm 21.2 17.1 6.3 38 7.6 ESE 17 24 9 13 1015.9 1015.0 0.0
23/06:30pm 23.0 17.7 5.0 31 9.1 SE 22 32 12 17 1015.5 1014.7 0.0
23/06:00pm 26.3 23.3 -5.3 12 13.5 SSE 2 9 1 5 1015.1 1014.3 0.0
23/05:30pm 26.7 22.4 -5.0 12 13.7 E 9 17 5 9 1015.0 1014.2 0.0
23/05:00pm 26.6 22.7 -5.1 12 13.7 ENE 7 15 4 8 1015.1 1014.3 0.0
23/04:30pm 26.8 23.1 -4.9 12 13.7 E 6 13 3 7 1015.0 1014.2 0.0
23/04:00pm 26.8 22.6 -3.9 13 13.5 E 9 26 5 14 1015.4 1014.6 0.0
23/03:30pm 27.1 22.9 -3.7 13 13.7 ENE 9 19 5 10 1015.8 1014.9 0.0
23/03:00pm 25.7 21.0 -4.7 13 13.1 SE 11 22 6 12 1016.2 1015.3 0.0
23/02:30pm 26.5 22.4 -3.1 14 13.2 SW 9 19 5 10 1016.4 1015.5 0.0
23/02:00pm 26.3 21.3 -4.3 13 13.3 ENE 13 20 7 11 1016.7 1015.8 0.0
23/01:30pm 25.2 20.1 -5.1 13 12.9 NE 13 19 7 10 1017.3 1016.4 0.0
23/01:00pm 24.6 20.1 -2.9 16 12.1 E 11 24 6 13 1017.7 1016.9 0.0
23/12:30pm 23.4 19.9 -1.5 19 11.2 E 7 15 4 8 1018.2 1017.4 0.0
23/12:00pm 22.6 17.9 -1.5 20 10.7 E 13 19 7 10 1018.4 1017.6 0.0
23/11:30am 22.6 19.4 -0.8 21 10.6 E 6 20 3 11 1018.8 1018.0 0.0
23/11:00am 21.7 18.1 0.8 25 9.6 E 9 20 5 11 1019.4 1018.5 0.0
23/10:30am 20.4 16.2 1.8 29 8.7 NE 13 20 7 11 1019.9 1019.0 0.0
23/10:00am 19.2 14.7 2.1 32 7.9 NE 15 24 8 13 1020.2 1019.4 0.0
23/09:30am 17.8 13.4 2.9 37 7.0 NE 15 22 8 12 1020.4 1019.6 0.0
23/09:00am 17.7 12.6 4.3 41 6.4 ENE 20 30 11 16 1020.8 1020.0 0.0
23/08:30am 16.0 11.3 5.0 48 5.3 ENE 19 28 10 15 1021.1 1020.3 0.0
23/08:00am 14.9 10.1 5.4 53 4.6 ENE 20 28 11 15 1021.4 1020.6 0.0
23/07:30am 13.8 8.7 5.9 59 3.8 ENE 22 30 12 16 1021.5 1020.7 0.0
23/07:00am 12.2 7.1 5.8 65 3.0 ENE 22 28 12 15 1021.6 1020.8 0.0
23/06:30am 11.5 7.8 6.4 71 2.4 ENE 15 24 8 13 1021.6 1020.8 0.0
23/06:00am 9.2 7.0 6.1 81 1.4 ENE 7 11 4 6 1021.4 1020.6 0.0
23/05:30am 7.9 5.7 5.5 85 1.1 E 6 7 3 4 1021.3 1020.5 0.0
23/05:00am 7.0 4.7 4.7 85 1.0 E 6 7 3 4 1021.0 1020.2 0.0
23/04:30am 7.1 4.8 4.6 84 1.1 E 6 6 3 3 1020.9 1020.1 0.0
23/04:00am 7.2 4.7 4.5 83 1.2 ENE 7 9 4 5 1020.6 1019.8 0.0
23/03:30am 7.6 5.1 4.7 82 1.3 E 7 9 4 5 1020.6 1019.8 0.0
23/03:00am 8.1 5.6 5.0 81 1.4 E 7 9 4 5 1020.7 1019.9 0.0
23/02:30am 8.5 6.1 5.3 80 1.5 E 7 11 4 6 1020.6 1019.8 0.0
23/02:00am 9.0 6.3 5.4 78 1.7 E 9 13 5 7 1020.8 1020.0 0.0
23/01:30am 9.4 6.3 5.6 77 1.8 E 11 15 6 8 1020.9 1020.1 0.0
23/01:00am 9.7 6.6 5.7 76 1.9 E 11 15 6 8 1020.9 1020.1 0.0
23/12:30am 10.1 6.6 5.5 73 2.1 ESE 13 17 7 9 1021.2 1020.4 0.0
23/12:00am 11.0 7.6 6.0 71 2.4 E 13 19 7 10 1021.4 1020.6 0.0
 
Date/Time
WST
Temp
°C
App
Temp
°C
Dew
Point
°C
Rel
Hum
%
Delta-T
°C
Wind Press
QNH
hPa
Press
MSL
hPa
Rain since
9am
mm
Dir  Spd
km/h
Gust
km/h
Spd
kts
Gust
kts
22/11:30pm 11.5 7.4 6.0 69 2.6 E 17 24 9 13 1021.5 1020.7 0.0
22/11:00pm 11.5 7.7 5.6 67 2.8 E 15 24 8 13 1021.7 1020.9 0.0
22/10:30pm 11.8 7.6 5.7 66 2.9 ESE 17 24 9 13 1021.8 1021.0 0.0
22/10:00pm 12.4 7.6 5.8 64 3.1 ESE 20 33 11 18 1021.9 1021.1 0.0
22/09:30pm 12.8 8.0 5.5 61 3.5 ESE 20 32 11 17 1021.9 1021.1 0.0
22/09:00pm 13.5 8.2 5.2 57 3.9 ESE 22 33 12 18 1021.7 1020.9 0.0
22/08:30pm 14.3 8.6 5.1 54 4.4 ESE 24 35 13 19 1021.3 1020.5 0.0
22/08:00pm 15.3 9.7 5.2 51 4.8 ESE 24 41 13 22 1021.1 1020.3 0.0
22/07:30pm 16.7 10.6 4.7 45 5.8 ESE 26 39 14 21 1020.6 1019.8 0.0
22/07:00pm 17.9 11.3 4.1 40 6.6 ESE 28 43 15 23 1020.4 1019.6 0.0
22/06:30pm 19.8 13.0 3.1 33 8.0 ESE 28 37 15 20 1020.0 1019.1 0.0
22/06:00pm 21.4 14.9 2.6 29 9.0 ESE 26 43 14 23 1019.5 1018.6 0.0
22/05:30pm 23.0 17.1 1.4 24 10.2 ESE 22 33 12 18 1019.1 1018.2 0.0
22/05:00pm 24.0 18.3 0.4 21 11.0 SE 20 30 11 16 1018.8 1018.0 0.0
22/04:30pm 25.1 19.8 -0.9 18 12.0 SE 17 28 9 15 1018.7 1017.9 0.0
22/04:00pm 25.1 19.7 -1.6 17 12.1 SE 17 26 9 14 1018.8 1018.0 0.0
22/03:30pm 24.9 19.5 -1.0 18 11.9 ESE 17 26 9 14 1019.1 1018.2 0.0
22/03:00pm 24.8 19.3 -1.9 17 12.0 E 17 26 9 14 1019.3 1018.4 0.0
22/02:30pm 24.0 18.5 -1.8 18 11.6 SE 17 30 9 16 1019.6 1018.7 0.0
22/02:00pm 23.9 18.8 -1.8 18 11.5 SE 15 30 8 16 1019.9 1019.0 0.0
22/01:30pm 23.7 18.7 -1.3 19 11.3 SE 15 26 8 14 1020.2 1019.4 0.0
22/01:00pm 23.0 18.4 -1.1 20 10.8 ESE 13 26 7 14 1020.5 1019.7 0.0
22/12:30pm 21.6 16.8 0.2 24 9.8 E 15 22 8 12 1020.9 1020.1 0.0
22/12:00pm 21.5 17.6 1.2 26 9.4 SSE 11 17 6 9 1021.3 1020.5 0.0
22/11:30am 20.2 15.9 1.1 28 8.8 ENE 13 24 7 13 1021.7 1020.9 0.0
22/11:00am 19.7 15.0 1.2 29 8.5 E 15 30 8 16 1022.1 1021.3 0.0
22/10:30am 18.8 15.1 2.2 33 7.7 ESE 11 22 6 12 1022.5 1021.6 0.0
22/10:00am 18.3 13.9 2.6 35 7.3 E 15 26 8 14 1022.8 1021.9 0.0
22/09:30am 17.0 12.6 2.6 38 6.7 E 15 22 8 12 1023.1 1022.3 0.0
22/09:00am 16.2 11.6 3.6 43 5.9 E 17 26 9 14 1023.3 1022.5 0.0
22/08:30am 15.4 11.1 3.5 45 5.5 E 15 20 8 11 1023.6 1022.8 0.0
22/08:00am 15.1 10.7 4.5 49 5.0 ESE 17 24 9 13 1023.7 1022.9 0.0
22/07:30am 14.1 9.6 4.4 52 4.5 E 17 24 9 13 1023.9 1023.1 0.0
22/07:00am 12.5 9.6 4.7 59 3.6 E 9 15 5 8 1023.9 1023.1 0.0
22/06:30am 11.1 8.7 5.2 67 2.7 E 7 11 4 6 1023.8 1023.0 0.0
22/06:00am 9.5 8.0 5.1 74 2.0 ESE 2 4 1 2 1023.6 1022.8 0.0
22/05:30am 7.2 5.1 3.8 79 1.5 ESE 4 4 2 2 1023.5 1022.7 0.0
22/05:00am 6.3 4.8 3.1 80 1.4 CALM 0 0 0 0 1023.2 1022.4 0.0
22/04:30am 6.9 5.5 3.7 80 1.4 CALM 0 4 0 2 1023.0 1022.2 0.0
22/04:00am 6.7 5.2 3.1 78 1.5 CALM 0 0 0 0 1022.8 1021.9 0.0
22/03:30am 6.8 5.3 3.1 77 1.6 CALM 0 0 0 0 1022.6 1021.7 0.0
22/03:00am 6.8 4.5 2.9 76 1.7 SE 4 6 2 3 1022.7 1021.8 0.0
22/02:30am 7.4 5.2 3.3 75 1.8 SE 4 6 2 3 1023.0 1022.2 0.0
22/02:00am 7.4 5.9 2.9 73 1.9 CALM 0 0 0 0 1022.8 1021.9 0.0
22/01:30am 7.6 6.1 3.1 73 1.9 CALM 0 0 0 0 1022.9 1022.1 0.0
22/01:00am 7.7 5.4 2.6 70 2.2 ESE 4 4 2 2 1023.1 1022.3 0.0
22/12:30am 8.5 5.7 2.9 68 2.4 SE 7 9 4 5 1023.0 1022.2 0.0
22/12:00am 8.8 5.6 2.8 66 2.6 SE 9 11 5 6 1023.0 1022.2 0.0
 
Date/Time
WST
Temp
°C
App
Temp
°C
Dew
Point
°C
Rel
Hum
%
Delta-T
°C
Wind Press
QNH
hPa
Press
MSL
hPa
Rain since
9am
mm
Dir  Spd
km/h
Gust
km/h
Spd
kts
Gust
kts
21/11:30pm 10.0 6.5 3.5 64 2.9 SE 11 17 6 9 1023.2 1022.4 0.0
21/11:00pm 10.8 6.9 3.6 61 3.2 ESE 13 19 7 10 1023.5 1022.7 0.0
21/10:30pm 11.3 7.4 3.6 59 3.5 SE 13 17 7 9 1023.6 1022.8 0.0
21/10:00pm 11.8 7.1 3.3 56 3.8 ESE 17 20 9 11 1023.4 1022.6 0.0
21/09:30pm 12.6 7.6 3.6 54 4.1 SE 19 26 10 14 1023.6 1022.8 0.0
21/09:00pm 13.2 8.1 3.3 51 4.5 SE 19 26 10 14 1023.3 1022.5 0.0
21/08:30pm 14.0 8.4 3.5 49 4.8 SE 22 28 12 15 1022.9 1022.1 0.0
21/08:00pm 15.0 9.7 3.2 45 5.4 SE 20 28 11 15 1022.3 1021.4 0.0
21/07:30pm 16.0 10.2 2.4 40 6.2 SE 22 32 12 17 1021.7 1020.9 0.0
21/07:00pm 17.1 11.6 1.9 36 6.9 SE 20 28 11 15 1021.3 1020.5 0.0
21/06:30pm 18.2 12.3 1.7 33 7.6 SE 22 32 12 17 1020.8 1020.0 0.0
21/06:00pm 19.4 13.8 0.9 29 8.4 SSE 20 32 11 17 1020.3 1019.5 0.0
21/05:30pm 20.2 14.1 0.6 27 8.9 SSE 22 33 12 18 1020.0 1019.1 0.0
21/05:00pm 20.5 15.0 0.4 26 9.1 SE 19 32 10 17 1019.6 1018.7 0.0
21/04:30pm 21.3 15.2 0.5 25 9.5 SE 22 32 12 17 1019.2 1018.3 0.0
21/04:00pm 21.3 15.1 -0.1 24 9.7 SSE 22 37 12 20 1019.2 1018.3 0.0
21/03:30pm 22.0 15.9 0.5 24 9.9 SE 22 32 12 17 1019.3 1018.4 0.0
21/03:00pm 22.2 16.2 1.3 25 9.8 SE 22 35 12 19 1019.2 1018.3 0.0
21/02:30pm 21.3 15.8 0.5 25 9.5 S 19 30 10 16 1019.2 1018.3 0.0
21/02:00pm 21.7 16.0 0.8 25 9.6 S 20 30 11 16 1018.8 1018.0 0.0
21/01:30pm 21.3 16.2 1.0 26 9.4 SSE 17 33 9 18 1019.3 1018.4 0.0
21/01:00pm 20.3 14.6 0.7 27 8.9 S 20 35 11 19 1019.5 1018.6 0.0
21/12:30pm 19.9 14.9 1.4 29 8.5 SSE 17 32 9 17 1019.6 1018.7 0.0
21/12:00pm 20.3 15.0 1.7 29 8.6 S 19 30 10 16 1019.6 1018.7 0.0
21/11:30am 19.3 14.4 1.8 31 8.1 SSE 17 35 9 19 1019.8 1018.9 0.0
21/11:00am 18.5 13.4 2.8 35 7.4 S 19 33 10 18 1020.0 1019.1 0.0
21/10:30am 19.8 15.8 2.6 32 8.1 SSE 13 24 7 13 1020.2 1019.4 0.0
21/10:00am 18.5 13.9 5.7 43 6.3 SSE 19 30 10 16 1020.2 1019.4 0.0
21/09:30am 16.2 11.4 4.9 47 5.4 S 19 26 10 14 1020.4 1019.6 0.0
21/09:00am 17.1 12.1 6.3 49 5.4 SSE 22 30 12 16 1020.7 1019.9 0.0
21/08:30am 15.8 11.8 6.5 54 4.6 S 17 28 9 15 1020.6 1019.8 0.0
21/08:00am 15.0 10.5 6.3 56 4.3 S 19 26 10 14 1020.3 1019.5 0.0
21/07:30am 14.6 10.1 6.9 60 3.8 S 20 28 11 15 1019.8 1018.9 0.0
21/07:00am 13.9 10.7 8.5 70 2.7 SSE 15 22 8 12 1019.7 1018.8 0.0
21/06:30am 12.5 10.4 8.4 76 2.1 SSE 9 13 5 7 1019.3 1018.4 0.0
21/06:00am 11.9 9.5 8.7 81 1.6 SSE 11 17 6 9 1019.1 1018.2 0.0
21/05:30am 11.4 8.7 9.0 85 1.2 SSE 13 20 7 11 1018.7 1017.9 0.0
21/05:00am 11.8 7.3 8.5 80 1.7 S 22 32 12 17 1018.3 1017.5 0.0
21/04:30am 13.5 12.0 9.2 75 2.2 SSW 7 9 4 5 1017.5 1016.7 0.0
21/04:00am 13.4 12.1 9.3 76 2.1 SSW 6 7 3 4 1017.3 1016.4 0.0
21/03:30am 13.5 11.6 9.0 74 2.3 SSE 9 13 5 7 1016.8 1015.9 0.0
21/03:00am 13.6 11.8 9.5 76 2.1 SSW 9 11 5 6 1017.0 1016.1 0.0
21/02:30am 13.8 12.4 9.5 75 2.2 SSE 7 11 4 6 1016.7 1015.8 0.0
21/02:00am 13.8 12.3 9.3 74 2.3 S 7 11 4 6 1016.6 1015.7 0.0
21/01:30am 13.9 11.6 8.9 72 2.6 SSE 11 15 6 8 1016.3 1015.4 0.0
21/01:00am 14.1 11.1 9.1 72 2.6 SSE 15 20 8 11 1016.4 1015.5 0.0
21/12:30am 14.1 11.6 9.7 75 2.3 S 13 17 7 9 1016.5 1015.6 0.0
21/12:00am 14.3 11.4 9.7 74 2.4 SSE 15 24 8 13 1016.6 1015.7 0.0
 
Date/Time
WST
Temp
°C
App
Temp
°C
Dew
Point
°C
Rel
Hum
%
Delta-T
°C
Wind Press
QNH
hPa
Press
MSL
hPa
Rain since
9am
mm
Dir  Spd
km/h
Gust
km/h
Spd
kts
Gust
kts
20/11:30pm 14.5 11.7 9.9 74 2.4 S 15 24 8 13 1016.6 1015.7 0.0
20/11:00pm 14.7 12.3 10.1 74 2.4 SSE 13 19 7 10 1016.7 1015.8 0.0
20/10:30pm 14.7 12.0 10.5 76 2.2 S 15 22 8 12 1016.5 1015.6 0.0
20/10:00pm 14.6 13.4 10.4 76 2.2 S 7 9 4 5 1016.6 1015.7 0.0
20/09:30pm 14.4 12.9 10.4 77 2.1 S 9 17 5 9 1016.5 1015.6 0.0

Other Formats:

Comma delimited format used in spreadsheet applications
http://www.bom.gov.au/fwo/IDW60801/IDW60801.94641.axf

JavaScript Object Notation format (JSON) in row-major order
http://www.bom.gov.au/fwo/IDW60801/IDW60801.94641.json